This is the latest recevied weather packets stored in our database for station/object 9M2MIN-1. If no packets are shown the sender has not sent any weather packets the latest 10 day(s).
| Time | Temp. | Humidity | Pressure | Rain* | Wind** | Luminosity | Snow |
|---|---|---|---|---|---|---|---|
| 1777117587 | 32.78° C | 74% | 1008.6 hPa | - | - | - | - |
| 1777116687 | 32.78° C | 73% | 1008.4 hPa | - | - | - | - |
| 1777115787 | 32.78° C | 71% | 1008.1 hPa | - | - | - | - |
| 1777114887 | 33.33° C | 69% | 1007.7 hPa | - | - | - | - |
| 1777113987 | 33.33° C | 69% | 1007.4 hPa | - | - | - | - |
| 1777113086 | 33.33° C | 69% | 1007.3 hPa | - | - | - | - |
| 1777112186 | 33.33° C | 68% | 1006.9 hPa | - | - | - | - |
| 1777111285 | 33.33° C | 67% | 1006.8 hPa | - | - | - | - |
| 1777110389 | 33.89° C | 67% | 1006.6 hPa | - | - | - | - |
| 1777109489 | 33.33° C | 66% | 1006.2 hPa | - | - | - | - |
| 1777108589 | 33.33° C | 67% | 1006.2 hPa | - | - | - | - |
| 1777107689 | 33.89° C | 65% | 1006.1 hPa | - | - | - | - |
| 1777106789 | 33.89° C | 65% | 1006.2 hPa | - | - | - | - |
| 1777105889 | 33.33° C | 65% | 1006.4 hPa | - | - | - | - |
| 1777104988 | 33.89° C | 65% | 1006.6 hPa | - | - | - | - |
| 1777104088 | 33.89° C | 66% | 1006.7 hPa | - | - | - | - |
| 1777103188 | 33.33° C | 65% | 1006.6 hPa | - | - | - | - |
| 1777102288 | 33.33° C | 65% | 1006.6 hPa | - | - | - | - |
| 1777101388 | 33.33° C | 66% | 1006.8 hPa | - | - | - | - |
| 1777100488 | 33.89° C | 66% | 1006.8 hPa | - | - | - | - |
| 1777099588 | 33.33° C | 68% | 1007.2 hPa | - | - | - | - |
| 1777098688 | 34.44° C | 62% | 1007.4 hPa | - | - | - | - |
| 1777097788 | 34.44° C | 65% | 1007.7 hPa | - | - | - | - |
| 1777096887 | 33.33° C | 69% | 1007.9 hPa | - | - | - | - |
| 1777095987 | 35° C | 61% | 1008.1 hPa | - | - | - | - |
* Rain since midnight (hover to see other rain measurements)
** Current wind speed in m/s (hover to see current wind gust speed)